sensor_id;sensor_type;location;lat;lon;timestamp;temperature;humidity
21592;DHT22;10958;50.892;3.992;2023-06-14T00:01:37;22.60;99.90
21592;DHT22;10958;50.892;3.992;2023-06-14T00:04:04;22.50;99.90
21592;DHT22;10958;50.892;3.992;2023-06-14T00:06:34;22.60;99.90
21592;DHT22;10958;50.892;3.992;2023-06-14T00:08:59;22.00;99.90
21592;DHT22;10958;50.892;3.992;2023-06-14T00:11:25;22.10;99.90
21592;DHT22;10958;50.892;3.992;2023-06-14T00:13:52;22.20;99.90
21592;DHT22;10958;50.892;3.992;2023-06-14T00:16:18;22.30;99.90
21592;DHT22;10958;50.892;3.992;2023-06-14T00:18:45;22.40;99.90
21592;DHT22;10958;50.892;3.992;2023-06-14T00:21:13;22.30;99.90
21592;DHT22;10958;50.892;3.992;2023-06-14T00:23:39;22.30;99.90
21592;DHT22;10958;50.892;3.992;2023-06-14T00:26:05;22.20;99.90
21592;DHT22;10958;50.892;3.992;2023-06-14T00:28:31;22.20;99.90
21592;DHT22;10958;50.892;3.992;2023-06-14T00:30:57;22.00;99.90
21592;DHT22;10958;50.892;3.992;2023-06-14T00:33:25;22.20;99.90
21592;DHT22;10958;50.892;3.992;2023-06-14T00:35:51;22.20;99.90
21592;DHT22;10958;50.892;3.992;2023-06-14T00:38:19;22.20;99.90
21592;DHT22;10958;50.892;3.992;2023-06-14T00:40:49;22.20;99.90
21592;DHT22;10958;50.892;3.992;2023-06-14T00:43:15;21.90;99.90
21592;DHT22;10958;50.892;3.992;2023-06-14T00:45:41;21.70;99.90
21592;DHT22;10958;50.892;3.992;2023-06-14T00:48:07;21.60;99.90
21592;DHT22;10958;50.892;3.992;2023-06-14T00:50:34;21.70;99.90
21592;DHT22;10958;50.892;3.992;2023-06-14T00:53:02;21.80;99.90
21592;DHT22;10958;50.892;3.992;2023-06-14T00:55:28;21.90;99.90
21592;DHT22;10958;50.892;3.992;2023-06-14T00:57:55;21.80;99.90
21592;DHT22;10958;50.892;3.992;2023-06-14T01:00:22;21.80;99.90
21592;DHT22;10958;50.892;3.992;2023-06-14T01:02:48;21.80;99.90
21592;DHT22;10958;50.892;3.992;2023-06-14T01:05:15;21.80;99.90
21592;DHT22;10958;50.892;3.992;2023-06-14T01:14:00;21.60;99.90
21592;DHT22;10958;50.892;3.992;2023-06-14T01:16:29;21.50;99.90
21592;DHT22;10958;50.892;3.992;2023-06-14T01:18:55;21.60;99.90
21592;DHT22;10958;50.892;3.992;2023-06-14T01:21:25;21.70;99.90
21592;DHT22;10958;50.892;3.992;2023-06-14T01:23:52;21.40;99.90
21592;DHT22;10958;50.892;3.992;2023-06-14T01:26:22;21.50;99.90
21592;DHT22;10958;50.892;3.992;2023-06-14T01:28:53;21.10;99.90
21592;DHT22;10958;50.892;3.992;2023-06-14T01:31:23;21.10;99.90
21592;DHT22;10958;50.892;3.992;2023-06-14T01:33:52;21.00;99.90
21592;DHT22;10958;50.892;3.992;2023-06-14T01:36:20;20.70;99.90
21592;DHT22;10958;50.892;3.992;2023-06-14T01:38:49;20.90;99.90
21592;DHT22;10958;50.892;3.992;2023-06-14T01:41:17;20.70;99.90
21592;DHT22;10958;50.892;3.992;2023-06-14T01:43:45;20.80;99.90
21592;DHT22;10958;50.892;3.992;2023-06-14T01:46:11;20.90;99.90
21592;DHT22;10958;50.892;3.992;2023-06-14T01:48:38;20.80;99.90
21592;DHT22;10958;50.892;3.992;2023-06-14T01:51:04;20.60;99.90
21592;DHT22;10958;50.892;3.992;2023-06-14T01:53:30;20.70;99.90
21592;DHT22;10958;50.892;3.992;2023-06-14T01:55:58;20.80;99.90
21592;DHT22;10958;50.892;3.992;2023-06-14T01:58:24;20.90;99.90
21592;DHT22;10958;50.892;3.992;2023-06-14T02:00:50;20.90;99.90
21592;DHT22;10958;50.892;3.992;2023-06-14T02:03:16;20.80;99.90
21592;DHT22;10958;50.892;3.992;2023-06-14T02:05:45;20.90;99.90
21592;DHT22;10958;50.892;3.992;2023-06-14T02:08:11;20.80;99.90
21592;DHT22;10958;50.892;3.992;2023-06-14T02:10:39;20.70;99.90
21592;DHT22;10958;50.892;3.992;2023-06-14T02:13:05;20.50;99.90
21592;DHT22;10958;50.892;3.992;2023-06-14T02:15:34;20.40;99.90
21592;DHT22;10958;50.892;3.992;2023-06-14T02:18:04;20.40;99.90
21592;DHT22;10958;50.892;3.992;2023-06-14T02:20:32;20.40;99.90
21592;DHT22;10958;50.892;3.992;2023-06-14T02:22:59;20.50;99.90
21592;DHT22;10958;50.892;3.992;2023-06-14T02:25:25;20.40;99.90
21592;DHT22;10958;50.892;3.992;2023-06-14T02:27:53;20.30;99.90
21592;DHT22;10958;50.892;3.992;2023-06-14T02:30:19;20.30;99.90
21592;DHT22;10958;50.892;3.992;2023-06-14T02:32:45;20.30;99.90
21592;DHT22;10958;50.892;3.992;2023-06-14T02:35:11;20.30;99.90
21592;DHT22;10958;50.892;3.992;2023-06-14T02:37:37;20.20;99.90
21592;DHT22;10958;50.892;3.992;2023-06-14T02:40:03;20.20;99.90
21592;DHT22;10958;50.892;3.992;2023-06-14T02:42:29;20.20;99.90
21592;DHT22;10958;50.892;3.992;2023-06-14T02:44:54;20.20;99.90
21592;DHT22;10958;50.892;3.992;2023-06-14T02:47:26;20.20;99.90
21592;DHT22;10958;50.892;3.992;2023-06-14T02:49:51;20.20;99.90
21592;DHT22;10958;50.892;3.992;2023-06-14T02:52:17;20.20;99.90
21592;DHT22;10958;50.892;3.992;2023-06-14T02:54:42;19.90;99.90
21592;DHT22;10958;50.892;3.992;2023-06-14T02:57:08;19.90;99.90
21592;DHT22;10958;50.892;3.992;2023-06-14T02:59:34;20.00;99.90
21592;DHT22;10958;50.892;3.992;2023-06-14T03:02:02;20.00;99.90
21592;DHT22;10958;50.892;3.992;2023-06-14T03:04:28;19.80;99.90
21592;DHT22;10958;50.892;3.992;2023-06-14T03:06:54;19.80;99.90
21592;DHT22;10958;50.892;3.992;2023-06-14T03:09:21;19.90;99.90
21592;DHT22;10958;50.892;3.992;2023-06-14T03:11:46;20.00;99.90
21592;DHT22;10958;50.892;3.992;2023-06-14T03:14:13;20.00;99.90
21592;DHT22;10958;50.892;3.992;2023-06-14T03:16:39;19.90;99.90
21592;DHT22;10958;50.892;3.992;2023-06-14T03:19:06;19.80;99.90
21592;DHT22;10958;50.892;3.992;2023-06-14T03:21:32;19.70;99.90
21592;DHT22;10958;50.892;3.992;2023-06-14T03:24:00;19.70;99.90
21592;DHT22;10958;50.892;3.992;2023-06-14T03:26:25;19.70;99.90
21592;DHT22;10958;50.892;3.992;2023-06-14T03:28:51;19.60;99.90
21592;DHT22;10958;50.892;3.992;2023-06-14T03:31:17;19.50;99.90
21592;DHT22;10958;50.892;3.992;2023-06-14T03:33:42;19.50;99.90
21592;DHT22;10958;50.892;3.992;2023-06-14T03:36:08;19.60;99.90
21592;DHT22;10958;50.892;3.992;2023-06-14T03:38:37;19.50;99.90
21592;DHT22;10958;50.892;3.992;2023-06-14T03:41:02;19.60;99.90
21592;DHT22;10958;50.892;3.992;2023-06-14T03:43:28;19.70;99.90
21592;DHT22;10958;50.892;3.992;2023-06-14T03:45:55;19.70;99.90
21592;DHT22;10958;50.892;3.992;2023-06-14T03:48:21;19.70;99.90
21592;DHT22;10958;50.892;3.992;2023-06-14T03:50:47;19.60;99.90
21592;DHT22;10958;50.892;3.992;2023-06-14T03:53:12;19.60;99.90
21592;DHT22;10958;50.892;3.992;2023-06-14T03:55:38;19.50;99.90
21592;DHT22;10958;50.892;3.992;2023-06-14T03:58:04;19.50;99.90
21592;DHT22;10958;50.892;3.992;2023-06-14T04:00:31;19.50;99.90
21592;DHT22;10958;50.892;3.992;2023-06-14T04:02:57;19.40;99.90
21592;DHT22;10958;50.892;3.992;2023-06-14T04:05:24;19.40;99.90
21592;DHT22;10958;50.892;3.992;2023-06-14T04:07:54;19.40;99.90
21592;DHT22;10958;50.892;3.992;2023-06-14T04:10:21;19.50;99.90
21592;DHT22;10958;50.892;3.992;2023-06-14T04:12:49;19.60;99.90
21592;DHT22;10958;50.892;3.992;2023-06-14T04:15:18;19.40;99.90
21592;DHT22;10958;50.892;3.992;2023-06-14T04:17:43;19.20;99.90
21592;DHT22;10958;50.892;3.992;2023-06-14T04:20:11;19.30;99.90
21592;DHT22;10958;50.892;3.992;2023-06-14T04:22:37;19.60;99.90
21592;DHT22;10958;50.892;3.992;2023-06-14T04:25:03;19.60;99.90
21592;DHT22;10958;50.892;3.992;2023-06-14T04:27:31;19.30;99.90
21592;DHT22;10958;50.892;3.992;2023-06-14T04:30:01;19.40;99.90
21592;DHT22;10958;50.892;3.992;2023-06-14T04:32:29;19.60;99.90
21592;DHT22;10958;50.892;3.992;2023-06-14T04:35:00;19.60;99.90
21592;DHT22;10958;50.892;3.992;2023-06-14T04:37:29;19.60;99.90
21592;DHT22;10958;50.892;3.992;2023-06-14T04:39:55;19.90;99.90
21592;DHT22;10958;50.892;3.992;2023-06-14T04:42:22;19.90;99.90
21592;DHT22;10958;50.892;3.992;2023-06-14T04:44:50;19.60;99.90
21592;DHT22;10958;50.892;3.992;2023-06-14T04:47:17;19.60;99.90
21592;DHT22;10958;50.892;3.992;2023-06-14T04:49:42;19.80;99.90
21592;DHT22;10958;50.892;3.992;2023-06-14T04:52:08;19.90;99.90
21592;DHT22;10958;50.892;3.992;2023-06-14T04:54:36;20.00;99.90
21592;DHT22;10958;50.892;3.992;2023-06-14T04:57:04;20.00;99.90
21592;DHT22;10958;50.892;3.992;2023-06-14T04:59:31;20.00;99.90
21592;DHT22;10958;50.892;3.992;2023-06-14T05:02:01;20.00;99.90
21592;DHT22;10958;50.892;3.992;2023-06-14T05:04:27;20.10;99.90
21592;DHT22;10958;50.892;3.992;2023-06-14T05:06:53;20.20;99.90
21592;DHT22;10958;50.892;3.992;2023-06-14T05:09:23;20.20;99.90
21592;DHT22;10958;50.892;3.992;2023-06-14T05:11:48;20.30;99.90
21592;DHT22;10958;50.892;3.992;2023-06-14T05:14:19;20.40;99.90
21592;DHT22;10958;50.892;3.992;2023-06-14T05:16:45;20.50;99.90
21592;DHT22;10958;50.892;3.992;2023-06-14T05:19:11;20.50;99.90
21592;DHT22;10958;50.892;3.992;2023-06-14T05:21:37;20.70;99.90
21592;DHT22;10958;50.892;3.992;2023-06-14T05:24:04;21.00;99.90
21592;DHT22;10958;50.892;3.992;2023-06-14T05:26:32;21.30;99.90
21592;DHT22;10958;50.892;3.992;2023-06-14T05:28:59;22.20;99.90
21592;DHT22;10958;50.892;3.992;2023-06-14T05:31:26;23.20;99.90
21592;DHT22;10958;50.892;3.992;2023-06-14T05:33:53;23.60;99.90
21592;DHT22;10958;50.892;3.992;2023-06-14T05:36:20;24.20;99.90
21592;DHT22;10958;50.892;3.992;2023-06-14T05:38:52;25.10;99.90
21592;DHT22;10958;50.892;3.992;2023-06-14T05:41:25;25.70;99.90
21592;DHT22;10958;50.892;3.992;2023-06-14T05:43:51;26.00;99.90
21592;DHT22;10958;50.892;3.992;2023-06-14T05:46:20;26.10;99.90
21592;DHT22;10958;50.892;3.992;2023-06-14T05:48:50;26.20;99.90
21592;DHT22;10958;50.892;3.992;2023-06-14T05:51:19;25.60;99.90
21592;DHT22;10958;50.892;3.992;2023-06-14T05:53:48;26.30;99.90
21592;DHT22;10958;50.892;3.992;2023-06-14T05:56:15;25.30;99.90
21592;DHT22;10958;50.892;3.992;2023-06-14T05:58:41;26.10;99.90
21592;DHT22;10958;50.892;3.992;2023-06-14T06:01:07;26.90;99.90
21592;DHT22;10958;50.892;3.992;2023-06-14T06:03:33;26.10;99.90
21592;DHT22;10958;50.892;3.992;2023-06-14T06:05:59;26.20;99.90
21592;DHT22;10958;50.892;3.992;2023-06-14T06:08:29;27.00;99.90
21592;DHT22;10958;50.892;3.992;2023-06-14T06:10:55;26.80;99.90
21592;DHT22;10958;50.892;3.992;2023-06-14T06:13:21;26.60;99.90
21592;DHT22;10958;50.892;3.992;2023-06-14T06:15:47;27.40;99.90
21592;DHT22;10958;50.892;3.992;2023-06-14T06:18:13;26.70;99.90
21592;DHT22;10958;50.892;3.992;2023-06-14T06:20:38;26.90;99.90
21592;DHT22;10958;50.892;3.992;2023-06-14T06:23:04;27.00;99.90
21592;DHT22;10958;50.892;3.992;2023-06-14T06:25:30;26.80;99.90
21592;DHT22;10958;50.892;3.992;2023-06-14T06:27:57;26.80;99.90
21592;DHT22;10958;50.892;3.992;2023-06-14T06:30:25;27.20;99.90
21592;DHT22;10958;50.892;3.992;2023-06-14T06:32:51;27.60;99.90
21592;DHT22;10958;50.892;3.992;2023-06-14T06:35:18;28.30;99.90
21592;DHT22;10958;50.892;3.992;2023-06-14T06:37:47;28.30;99.90
21592;DHT22;10958;50.892;3.992;2023-06-14T06:40:16;29.10;99.90
21592;DHT22;10958;50.892;3.992;2023-06-14T06:42:42;29.20;99.90
21592;DHT22;10958;50.892;3.992;2023-06-14T06:45:08;29.50;99.90
21592;DHT22;10958;50.892;3.992;2023-06-14T06:47:36;29.20;99.90
21592;DHT22;10958;50.892;3.992;2023-06-14T06:50:02;28.80;99.90
21592;DHT22;10958;50.892;3.992;2023-06-14T06:52:27;28.00;99.90
21592;DHT22;10958;50.892;3.992;2023-06-14T06:54:54;28.40;99.90
21592;DHT22;10958;50.892;3.992;2023-06-14T06:57:21;29.30;99.90
21592;DHT22;10958;50.892;3.992;2023-06-14T06:59:50;29.80;99.90
21592;DHT22;10958;50.892;3.992;2023-06-14T07:02:16;30.00;99.90
21592;DHT22;10958;50.892;3.992;2023-06-14T07:04:42;30.60;99.90
21592;DHT22;10958;50.892;3.992;2023-06-14T07:07:08;31.60;99.90
21592;DHT22;10958;50.892;3.992;2023-06-14T07:09:37;32.50;99.90
21592;DHT22;10958;50.892;3.992;2023-06-14T07:12:03;32.50;99.90
21592;DHT22;10958;50.892;3.992;2023-06-14T07:14:30;32.30;99.90
21592;DHT22;10958;50.892;3.992;2023-06-14T07:16:56;32.60;99.90
21592;DHT22;10958;50.892;3.992;2023-06-14T07:19:21;31.70;99.90
21592;DHT22;10958;50.892;3.992;2023-06-14T07:21:49;31.20;99.90
21592;DHT22;10958;50.892;3.992;2023-06-14T07:24:15;31.40;99.90
21592;DHT22;10958;50.892;3.992;2023-06-14T07:26:41;31.60;99.90
21592;DHT22;10958;50.892;3.992;2023-06-14T07:29:07;31.50;99.90
21592;DHT22;10958;50.892;3.992;2023-06-14T07:31:32;31.70;99.90
21592;DHT22;10958;50.892;3.992;2023-06-14T07:33:58;31.40;99.90
21592;DHT22;10958;50.892;3.992;2023-06-14T07:36:27;30.70;99.90
21592;DHT22;10958;50.892;3.992;2023-06-14T07:38:53;31.20;99.90
21592;DHT22;10958;50.892;3.992;2023-06-14T07:41:19;31.20;99.90
21592;DHT22;10958;50.892;3.992;2023-06-14T07:43:45;31.80;99.90
21592;DHT22;10958;50.892;3.992;2023-06-14T07:46:14;32.00;99.90
21592;DHT22;10958;50.892;3.992;2023-06-14T07:48:40;32.30;99.90
21592;DHT22;10958;50.892;3.992;2023-06-14T07:51:08;31.90;99.50
21592;DHT22;10958;50.892;3.992;2023-06-14T07:53:34;32.60;99.50
21592;DHT22;10958;50.892;3.992;2023-06-14T07:56:00;32.80;99.70
21592;DHT22;10958;50.892;3.992;2023-06-14T07:58:25;33.20;99.80
21592;DHT22;10958;50.892;3.992;2023-06-14T08:00:52;32.80;97.80
21592;DHT22;10958;50.892;3.992;2023-06-14T08:03:20;32.40;98.30
21592;DHT22;10958;50.892;3.992;2023-06-14T08:05:46;32.40;98.30
21592;DHT22;10958;50.892;3.992;2023-06-14T08:08:11;31.40;98.70
21592;DHT22;10958;50.892;3.992;2023-06-14T08:10:39;31.90;98.90
21592;DHT22;10958;50.892;3.992;2023-06-14T08:13:05;32.60;99.10
21592;DHT22;10958;50.892;3.992;2023-06-14T08:15:31;33.80;97.80
21592;DHT22;10958;50.892;3.992;2023-06-14T08:17:59;34.70;96.70
21592;DHT22;10958;50.892;3.992;2023-06-14T08:20:27;34.80;96.30
21592;DHT22;10958;50.892;3.992;2023-06-14T08:22:55;34.70;96.20
21592;DHT22;10958;50.892;3.992;2023-06-14T08:25:22;34.40;95.60
21592;DHT22;10958;50.892;3.992;2023-06-14T08:27:48;34.50;95.60
21592;DHT22;10958;50.892;3.992;2023-06-14T08:30:14;34.80;95.30
21592;DHT22;10958;50.892;3.992;2023-06-14T08:32:40;35.40;93.80
21592;DHT22;10958;50.892;3.992;2023-06-14T08:35:06;35.80;93.30
21592;DHT22;10958;50.892;3.992;2023-06-14T08:37:32;35.30;93.00
21592;DHT22;10958;50.892;3.992;2023-06-14T08:40:00;35.30;92.20
21592;DHT22;10958;50.892;3.992;2023-06-14T08:42:26;36.00;92.80
21592;DHT22;10958;50.892;3.992;2023-06-14T08:44:54;36.30;90.90
21592;DHT22;10958;50.892;3.992;2023-06-14T08:47:20;35.30;91.90
21592;DHT22;10958;50.892;3.992;2023-06-14T08:49:47;36.30;91.90
21592;DHT22;10958;50.892;3.992;2023-06-14T08:52:16;36.50;91.00
21592;DHT22;10958;50.892;3.992;2023-06-14T08:54:45;36.80;90.30
21592;DHT22;10958;50.892;3.992;2023-06-14T08:57:16;36.70;90.90
21592;DHT22;10958;50.892;3.992;2023-06-14T08:59:46;36.50;87.60
21592;DHT22;10958;50.892;3.992;2023-06-14T09:02:15;36.40;87.90
21592;DHT22;10958;50.892;3.992;2023-06-14T09:04:43;36.00;88.10
21592;DHT22;10958;50.892;3.992;2023-06-14T09:07:10;36.10;86.30
21592;DHT22;10958;50.892;3.992;2023-06-14T09:09:40;36.40;85.90
21592;DHT22;10958;50.892;3.992;2023-06-14T09:12:08;36.80;85.90
21592;DHT22;10958;50.892;3.992;2023-06-14T09:14:38;36.10;87.00
21592;DHT22;10958;50.892;3.992;2023-06-14T09:17:06;36.20;86.80
21592;DHT22;10958;50.892;3.992;2023-06-14T09:19:35;35.70;88.00
21592;DHT22;10958;50.892;3.992;2023-06-14T09:22:04;35.40;86.40
21592;DHT22;10958;50.892;3.992;2023-06-14T09:24:30;35.10;87.20
21592;DHT22;10958;50.892;3.992;2023-06-14T09:26:56;34.80;87.30
21592;DHT22;10958;50.892;3.992;2023-06-14T09:29:23;34.50;87.50
21592;DHT22;10958;50.892;3.992;2023-06-14T09:31:50;34.40;87.30
21592;DHT22;10958;50.892;3.992;2023-06-14T09:34:16;33.80;87.90
21592;DHT22;10958;50.892;3.992;2023-06-14T09:36:43;34.20;86.70
21592;DHT22;10958;50.892;3.992;2023-06-14T09:39:17;33.80;87.70
21592;DHT22;10958;50.892;3.992;2023-06-14T09:41:43;34.20;87.50
21592;DHT22;10958;50.892;3.992;2023-06-14T09:44:10;34.20;89.30
21592;DHT22;10958;50.892;3.992;2023-06-14T09:46:38;34.20;86.30
21592;DHT22;10958;50.892;3.992;2023-06-14T09:49:04;34.60;85.90
21592;DHT22;10958;50.892;3.992;2023-06-14T09:51:31;33.60;86.10
21592;DHT22;10958;50.892;3.992;2023-06-14T09:54:01;33.50;90.00
21592;DHT22;10958;50.892;3.992;2023-06-14T09:56:37;33.70;89.20
21592;DHT22;10958;50.892;3.992;2023-06-14T09:59:05;34.00;90.20
21592;DHT22;10958;50.892;3.992;2023-06-14T10:01:32;32.70;88.00
21592;DHT22;10958;50.892;3.992;2023-06-14T10:04:09;32.50;90.90
21592;DHT22;10958;50.892;3.992;2023-06-14T10:06:43;32.70;90.50
21592;DHT22;10958;50.892;3.992;2023-06-14T10:09:11;32.20;90.80
21592;DHT22;10958;50.892;3.992;2023-06-14T10:11:37;32.80;90.40
21592;DHT22;10958;50.892;3.992;2023-06-14T10:14:10;32.80;90.30
21592;DHT22;10958;50.892;3.992;2023-06-14T10:16:38;31.90;90.60
21592;DHT22;10958;50.892;3.992;2023-06-14T10:19:18;32.30;90.60
21592;DHT22;10958;50.892;3.992;2023-06-14T10:21:58;31.80;91.00
21592;DHT22;10958;50.892;3.992;2023-06-14T10:24:30;31.40;92.10
21592;DHT22;10958;50.892;3.992;2023-06-14T10:27:00;31.70;91.30
21592;DHT22;10958;50.892;3.992;2023-06-14T10:29:29;31.50;91.50
21592;DHT22;10958;50.892;3.992;2023-06-14T10:31:58;31.20;92.10
21592;DHT22;10958;50.892;3.992;2023-06-14T10:37:06;31.40;92.40
21592;DHT22;10958;50.892;3.992;2023-06-14T10:39:45;31.10;91.20
21592;DHT22;10958;50.892;3.992;2023-06-14T10:42:12;30.10;92.00
21592;DHT22;10958;50.892;3.992;2023-06-14T10:44:43;30.30;92.70
21592;DHT22;10958;50.892;3.992;2023-06-14T10:47:35;30.40;92.20
21592;DHT22;10958;50.892;3.992;2023-06-14T10:50:10;30.40;91.80
21592;DHT22;10958;50.892;3.992;2023-06-14T10:52:40;30.30;92.10
21592;DHT22;10958;50.892;3.992;2023-06-14T10:57:50;29.30;94.10
21592;DHT22;10958;50.892;3.992;2023-06-14T11:00:25;29.10;93.80
21592;DHT22;10958;50.892;3.992;2023-06-14T11:11:35;29.10;92.30
21592;DHT22;10958;50.892;3.992;2023-06-14T11:14:06;29.30;91.50
21592;DHT22;10958;50.892;3.992;2023-06-14T11:16:31;29.30;91.30
21592;DHT22;10958;50.892;3.992;2023-06-14T11:19:00;28.90;93.60
21592;DHT22;10958;50.892;3.992;2023-06-14T11:21:28;28.70;93.40
21592;DHT22;10958;50.892;3.992;2023-06-14T11:23:59;28.70;92.80
21592;DHT22;10958;50.892;3.992;2023-06-14T11:26:29;29.10;92.70
21592;DHT22;10958;50.892;3.992;2023-06-14T11:29:00;29.00;92.00
21592;DHT22;10958;50.892;3.992;2023-06-14T11:31:26;28.70;92.70
21592;DHT22;10958;50.892;3.992;2023-06-14T11:33:59;28.60;93.30
21592;DHT22;10958;50.892;3.992;2023-06-14T11:36:29;28.60;92.40
21592;DHT22;10958;50.892;3.992;2023-06-14T11:39:00;28.50;92.80
21592;DHT22;10958;50.892;3.992;2023-06-14T11:41:31;28.70;93.20
21592;DHT22;10958;50.892;3.992;2023-06-14T11:43:57;29.10;93.30
21592;DHT22;10958;50.892;3.992;2023-06-14T11:46:25;29.20;94.30
21592;DHT22;10958;50.892;3.992;2023-06-14T11:48:51;29.00;92.50
21592;DHT22;10958;50.892;3.992;2023-06-14T11:51:20;29.10;92.80
21592;DHT22;10958;50.892;3.992;2023-06-14T11:53:46;29.10;91.60
21592;DHT22;10958;50.892;3.992;2023-06-14T11:56:12;29.30;91.10
21592;DHT22;10958;50.892;3.992;2023-06-14T11:58:38;29.30;91.50
21592;DHT22;10958;50.892;3.992;2023-06-14T12:01:04;29.30;91.30
21592;DHT22;10958;50.892;3.992;2023-06-14T12:03:30;29.00;90.20
21592;DHT22;10958;50.892;3.992;2023-06-14T12:06:07;29.00;90.70
21592;DHT22;10958;50.892;3.992;2023-06-14T12:08:37;29.00;92.50
21592;DHT22;10958;50.892;3.992;2023-06-14T12:11:13;29.10;91.20
21592;DHT22;10958;50.892;3.992;2023-06-14T12:13:40;29.20;90.80
21592;DHT22;10958;50.892;3.992;2023-06-14T12:16:11;29.20;91.70
21592;DHT22;10958;50.892;3.992;2023-06-14T12:18:39;29.30;90.90
21592;DHT22;10958;50.892;3.992;2023-06-14T12:21:06;29.10;91.80
21592;DHT22;10958;50.892;3.992;2023-06-14T12:23:53;29.10;92.20
21592;DHT22;10958;50.892;3.992;2023-06-14T12:26:20;29.10;91.70
21592;DHT22;10958;50.892;3.992;2023-06-14T12:28:47;29.10;91.80
21592;DHT22;10958;50.892;3.992;2023-06-14T12:31:15;28.80;92.50
21592;DHT22;10958;50.892;3.992;2023-06-14T12:33:41;28.80;93.00
21592;DHT22;10958;50.892;3.992;2023-06-14T12:36:08;28.70;92.60
21592;DHT22;10958;50.892;3.992;2023-06-14T12:38:35;28.90;91.90
21592;DHT22;10958;50.892;3.992;2023-06-14T12:41:01;28.80;92.20
21592;DHT22;10958;50.892;3.992;2023-06-14T12:43:27;29.20;92.90
21592;DHT22;10958;50.892;3.992;2023-06-14T12:45:53;29.30;93.10
21592;DHT22;10958;50.892;3.992;2023-06-14T12:48:19;29.30;92.00
21592;DHT22;10958;50.892;3.992;2023-06-14T12:50:45;29.00;91.90
21592;DHT22;10958;50.892;3.992;2023-06-14T12:53:11;28.80;92.10
21592;DHT22;10958;50.892;3.992;2023-06-14T12:55:36;28.70;93.20
21592;DHT22;10958;50.892;3.992;2023-06-14T12:58:05;28.70;92.00
21592;DHT22;10958;50.892;3.992;2023-06-14T13:00:30;28.80;92.60
21592;DHT22;10958;50.892;3.992;2023-06-14T13:02:59;28.70;91.80
21592;DHT22;10958;50.892;3.992;2023-06-14T13:05:25;28.70;92.00
21592;DHT22;10958;50.892;3.992;2023-06-14T13:07:54;28.80;92.10
21592;DHT22;10958;50.892;3.992;2023-06-14T13:10:20;28.80;91.40
21592;DHT22;10958;50.892;3.992;2023-06-14T13:14:49;29.10;91.50
21592;DHT22;10958;50.892;3.992;2023-06-14T13:17:14;29.00;91.70
21592;DHT22;10958;50.892;3.992;2023-06-14T13:19:41;28.90;91.70
21592;DHT22;10958;50.892;3.992;2023-06-14T13:22:07;28.90;92.00
21592;DHT22;10958;50.892;3.992;2023-06-14T13:24:34;29.00;92.80
21592;DHT22;10958;50.892;3.992;2023-06-14T13:27:02;29.00;92.80
21592;DHT22;10958;50.892;3.992;2023-06-14T13:29:27;29.10;92.00
21592;DHT22;10958;50.892;3.992;2023-06-14T13:31:56;28.90;91.80
21592;DHT22;10958;50.892;3.992;2023-06-14T13:34:22;28.90;91.30
21592;DHT22;10958;50.892;3.992;2023-06-14T13:36:49;29.10;91.90
21592;DHT22;10958;50.892;3.992;2023-06-14T13:39:16;29.20;91.50
21592;DHT22;10958;50.892;3.992;2023-06-14T13:41:41;29.10;91.30
21592;DHT22;10958;50.892;3.992;2023-06-14T13:44:07;29.00;91.80
21592;DHT22;10958;50.892;3.992;2023-06-14T13:46:33;29.00;91.70
21592;DHT22;10958;50.892;3.992;2023-06-14T13:49:01;29.10;91.80
21592;DHT22;10958;50.892;3.992;2023-06-14T13:51:27;29.30;91.80
21592;DHT22;10958;50.892;3.992;2023-06-14T13:53:53;29.20;92.70
21592;DHT22;10958;50.892;3.992;2023-06-14T13:56:20;29.00;91.90
21592;DHT22;10958;50.892;3.992;2023-06-14T13:58:48;29.20;92.70
21592;DHT22;10958;50.892;3.992;2023-06-14T14:01:14;29.40;92.50
21592;DHT22;10958;50.892;3.992;2023-06-14T14:03:40;29.20;92.40
21592;DHT22;10958;50.892;3.992;2023-06-14T14:06:05;29.00;91.60
21592;DHT22;10958;50.892;3.992;2023-06-14T14:08:32;28.80;92.10
21592;DHT22;10958;50.892;3.992;2023-06-14T14:10:58;28.80;92.90
21592;DHT22;10958;50.892;3.992;2023-06-14T14:13:24;29.00;92.20
21592;DHT22;10958;50.892;3.992;2023-06-14T14:15:50;28.90;92.50
21592;DHT22;10958;50.892;3.992;2023-06-14T14:18:16;28.80;92.10
21592;DHT22;10958;50.892;3.992;2023-06-14T14:20:41;29.00;91.00
21592;DHT22;10958;50.892;3.992;2023-06-14T14:23:10;29.20;92.00
21592;DHT22;10958;50.892;3.992;2023-06-14T14:25:35;29.40;92.00
21592;DHT22;10958;50.892;3.992;2023-06-14T14:28:04;29.00;91.30
21592;DHT22;10958;50.892;3.992;2023-06-14T14:30:30;28.70;91.90
21592;DHT22;10958;50.892;3.992;2023-06-14T14:32:56;28.50;91.30
21592;DHT22;10958;50.892;3.992;2023-06-14T14:35:22;28.40;91.00
21592;DHT22;10958;50.892;3.992;2023-06-14T14:37:49;28.50;91.50
21592;DHT22;10958;50.892;3.992;2023-06-14T14:40:15;28.60;91.80
21592;DHT22;10958;50.892;3.992;2023-06-14T14:42:42;28.70;92.60
21592;DHT22;10958;50.892;3.992;2023-06-14T14:45:08;28.80;92.90
21592;DHT22;10958;50.892;3.992;2023-06-14T14:47:34;28.70;91.20
21592;DHT22;10958;50.892;3.992;2023-06-14T14:50:00;28.60;92.80
21592;DHT22;10958;50.892;3.992;2023-06-14T14:52:28;28.50;92.70
21592;DHT22;10958;50.892;3.992;2023-06-14T14:54:54;28.70;91.60
21592;DHT22;10958;50.892;3.992;2023-06-14T14:57:21;28.50;92.10
21592;DHT22;10958;50.892;3.992;2023-06-14T14:59:47;28.40;92.70
21592;DHT22;10958;50.892;3.992;2023-06-14T15:02:14;28.60;92.30
21592;DHT22;10958;50.892;3.992;2023-06-14T15:04:40;28.60;91.80
21592;DHT22;10958;50.892;3.992;2023-06-14T15:07:06;28.50;90.90
21592;DHT22;10958;50.892;3.992;2023-06-14T15:09:34;28.40;90.70
21592;DHT22;10958;50.892;3.992;2023-06-14T15:11:59;28.40;91.50
21592;DHT22;10958;50.892;3.992;2023-06-14T15:14:25;28.30;90.20
21592;DHT22;10958;50.892;3.992;2023-06-14T15:16:51;28.50;90.70
21592;DHT22;10958;50.892;3.992;2023-06-14T15:19:20;28.50;91.70
21592;DHT22;10958;50.892;3.992;2023-06-14T15:21:49;28.50;90.90
21592;DHT22;10958;50.892;3.992;2023-06-14T15:24:28;28.50;91.40
21592;DHT22;10958;50.892;3.992;2023-06-14T15:26:56;28.50;91.50
21592;DHT22;10958;50.892;3.992;2023-06-14T15:29:22;28.50;90.50
21592;DHT22;10958;50.892;3.992;2023-06-14T15:31:48;28.30;90.40
21592;DHT22;10958;50.892;3.992;2023-06-14T15:34:14;28.10;90.70
21592;DHT22;10958;50.892;3.992;2023-06-14T15:36:42;28.10;90.90
21592;DHT22;10958;50.892;3.992;2023-06-14T15:39:08;28.10;91.50
21592;DHT22;10958;50.892;3.992;2023-06-14T15:41:33;28.10;90.80
21592;DHT22;10958;50.892;3.992;2023-06-14T15:43:59;28.10;90.00
21592;DHT22;10958;50.892;3.992;2023-06-14T15:46:25;28.20;91.50
21592;DHT22;10958;50.892;3.992;2023-06-14T15:48:50;28.10;90.50
21592;DHT22;10958;50.892;3.992;2023-06-14T15:51:16;28.10;90.10
21592;DHT22;10958;50.892;3.992;2023-06-14T15:53:42;28.10;90.40